createdAt,value
2017-07-27T00:00:03.366Z,19.80
2017-07-27T00:02:30.884Z,13.80
2017-07-27T00:04:58.416Z,15.03
2017-07-27T00:07:26.316Z,15.77
2017-07-27T00:09:53.825Z,15.70
2017-07-27T00:12:21.350Z,16.17
2017-07-27T00:14:49.208Z,16.77
2017-07-27T00:17:16.727Z,15.67
2017-07-27T00:19:44.238Z,16.07
2017-07-27T00:22:12.075Z,18.17
2017-07-27T00:24:39.603Z,24.07
2017-07-27T00:27:07.891Z,26.83
2017-07-27T00:29:35.690Z,25.23
2017-07-27T00:32:03.213Z,25.53
2017-07-27T00:34:30.739Z,22.93
2017-07-27T00:36:58.567Z,22.60
2017-07-27T00:39:26.106Z,19.40
2017-07-27T00:41:53.635Z,16.43
2017-07-27T00:44:21.452Z,19.57
2017-07-27T00:46:48.980Z,19.40
2017-07-27T00:49:17.263Z,17.97
2017-07-27T00:51:44.824Z,18.57
2017-07-27T00:54:12.364Z,19.33
2017-07-27T00:56:40.179Z,19.87
2017-07-27T00:59:07.714Z,20.47
2017-07-27T01:01:35.242Z,19.37
2017-07-27T01:04:02.762Z,17.50
2017-07-27T01:06:30.279Z,20.83
2017-07-27T01:08:58.855Z,20.83
2017-07-27T01:11:26.371Z,19.97
2017-07-27T01:13:53.895Z,18.47
2017-07-27T01:16:21.432Z,19.73
2017-07-27T01:18:49.744Z,17.73
2017-07-27T01:21:17.565Z,22.50
2017-07-27T01:23:45.095Z,23.20
2017-07-27T01:26:12.649Z,22.37
2017-07-27T01:28:40.182Z,21.03
2017-07-27T01:31:07.719Z,21.27
2017-07-27T01:33:36.343Z,20.13
2017-07-27T01:36:03.880Z,25.40
2017-07-27T01:38:31.410Z,26.33
2017-07-27T01:40:58.945Z,25.00
2017-07-27T01:43:26.463Z,28.40
2017-07-27T01:45:54.382Z,18.10
2017-07-27T01:48:21.940Z,20.37
2017-07-27T01:50:49.458Z,15.00
2017-07-27T01:53:16.998Z,15.93
2017-07-27T01:55:44.506Z,15.23
2017-07-27T01:58:12.359Z,16.13
2017-07-27T02:00:39.872Z,13.50
2017-07-27T02:03:07.403Z,14.67
2017-07-27T02:05:34.936Z,14.90
2017-07-27T02:08:02.472Z,19.10
2017-07-27T02:10:30.361Z,14.93
2017-07-27T02:12:57.885Z,13.33
2017-07-27T02:15:25.405Z,15.77
2017-07-27T02:17:52.917Z,14.70
2017-07-27T02:20:20.439Z,16.17
2017-07-27T02:22:48.266Z,15.53
2017-07-27T02:25:15.790Z,13.73
2017-07-27T02:27:43.322Z,18.63
2017-07-27T02:30:10.865Z,15.17
2017-07-27T02:32:38.396Z,15.30
2017-07-27T02:35:06.285Z,15.63
2017-07-27T02:37:33.813Z,17.93
2017-07-27T02:40:01.334Z,17.10
2017-07-27T02:42:28.875Z,16.23
2017-07-27T02:44:56.385Z,18.73
2017-07-27T02:47:24.294Z,16.83
2017-07-27T02:49:51.803Z,19.13
2017-07-27T02:52:19.327Z,16.40
2017-07-27T02:54:46.867Z,18.17
2017-07-27T02:57:14.391Z,15.70
2017-07-27T02:59:42.280Z,14.90
2017-07-27T03:02:09.798Z,20.60
2017-07-27T03:04:38.096Z,13.73
2017-07-27T03:07:05.622Z,15.47
2017-07-27T03:09:33.143Z,18.30
2017-07-27T03:12:00.943Z,14.93
2017-07-27T03:14:28.460Z,13.63
2017-07-27T03:16:55.975Z,11.57
2017-07-27T03:19:24.271Z,15.63
2017-07-27T03:21:51.805Z,14.57
2017-07-27T03:24:19.609Z,15.23
2017-07-27T03:26:47.116Z,13.30
2017-07-27T03:29:14.655Z,18.13
2017-07-27T03:31:42.172Z,13.63
2017-07-27T03:34:10.453Z,14.63
2017-07-27T03:36:37.972Z,14.70
2017-07-27T03:39:05.505Z,16.63
2017-07-27T03:41:33.381Z,17.83
2017-07-27T03:44:00.905Z,13.80
2017-07-27T03:46:28.489Z,16.27
2017-07-27T03:48:56.056Z,15.70
2017-07-27T03:51:23.581Z,17.63
2017-07-27T03:53:51.166Z,12.63
2017-07-27T03:56:19.815Z,15.47
2017-07-27T03:58:47.337Z,13.97
2017-07-27T04:01:14.846Z,16.50
2017-07-27T04:03:42.384Z,13.73
2017-07-27T04:06:10.681Z,14.00
2017-07-27T04:08:38.494Z,12.93
2017-07-27T04:11:06.030Z,15.80
2017-07-27T04:13:33.554Z,13.27
2017-07-27T04:16:01.863Z,14.90
2017-07-27T04:18:29.402Z,12.77
2017-07-27T04:20:57.305Z,12.87
2017-07-27T04:23:24.844Z,12.30
2017-07-27T04:25:52.349Z,18.43
2017-07-27T04:28:19.891Z,13.37
2017-07-27T04:30:47.402Z,19.20
2017-07-27T04:33:15.312Z,13.63
2017-07-27T04:35:42.865Z,13.73
2017-07-27T04:38:10.399Z,20.60
2017-07-27T04:40:37.943Z,13.83
2017-07-27T04:43:06.227Z,16.73
2017-07-27T04:45:34.027Z,13.20
2017-07-27T04:48:01.545Z,12.27
2017-07-27T04:50:29.082Z,12.43
2017-07-27T04:52:56.643Z,13.87
2017-07-27T04:55:24.171Z,15.30
2017-07-27T04:57:59.784Z,13.50
2017-07-27T05:00:27.301Z,14.80
2017-07-27T05:02:54.819Z,14.33
2017-07-27T05:05:22.356Z,11.27
2017-07-27T05:07:49.866Z,12.53
2017-07-27T05:10:17.717Z,13.93
2017-07-27T05:12:45.242Z,13.07
2017-07-27T05:15:12.782Z,13.77
2017-07-27T05:17:40.324Z,11.00
2017-07-27T05:20:07.882Z,14.67
2017-07-27T05:22:35.736Z,11.37
2017-07-27T05:25:03.270Z,12.97
2017-07-27T05:27:30.787Z,15.10
2017-07-27T05:29:58.319Z,13.83
2017-07-27T05:32:25.855Z,12.53
2017-07-27T05:34:53.730Z,13.73
2017-07-27T05:37:21.320Z,18.17
2017-07-27T05:39:48.841Z,9.97
2017-07-27T05:42:16.368Z,10.90
2017-07-27T05:44:43.888Z,10.60
2017-07-27T05:47:11.648Z,11.23
2017-07-27T05:49:39.182Z,11.67
2017-07-27T05:52:06.695Z,10.60
2017-07-27T05:54:34.232Z,9.17
2017-07-27T05:57:01.769Z,12.40
2017-07-27T05:59:29.640Z,14.43
2017-07-27T06:01:57.153Z,10.07
2017-07-27T06:04:24.671Z,11.90
2017-07-27T06:06:52.288Z,10.63
2017-07-27T06:09:19.803Z,13.23
2017-07-27T06:11:47.636Z,15.50
2017-07-27T06:14:15.188Z,14.10
2017-07-27T06:16:42.723Z,13.20
2017-07-27T06:19:10.590Z,13.73
2017-07-27T06:21:38.115Z,15.60
2017-07-27T06:24:05.653Z,10.87
2017-07-27T06:26:33.518Z,12.10
2017-07-27T06:29:01.049Z,11.50
2017-07-27T06:31:28.566Z,11.20
2017-07-27T06:33:56.365Z,12.53
2017-07-27T06:36:23.870Z,10.60
2017-07-27T06:38:51.392Z,18.87
2017-07-27T06:41:19.384Z,11.30
2017-07-27T06:43:46.903Z,10.70
2017-07-27T06:46:14.430Z,11.53
2017-07-27T06:48:42.251Z,10.60
2017-07-27T06:51:09.795Z,16.27
2017-07-27T06:53:37.340Z,11.93
2017-07-27T06:56:05.160Z,13.70
2017-07-27T06:58:32.684Z,13.10
2017-07-27T07:01:00.969Z,11.87
2017-07-27T07:03:28.765Z,12.27
2017-07-27T07:05:56.293Z,14.27
2017-07-27T07:08:23.805Z,14.63
2017-07-27T07:10:51.641Z,14.23
2017-07-27T07:13:19.156Z,12.13
2017-07-27T07:15:47.462Z,12.57
2017-07-27T07:18:15.374Z,13.33
2017-07-27T07:20:42.899Z,11.60
2017-07-27T07:23:10.410Z,13.07
2017-07-27T07:25:38.251Z,14.97
2017-07-27T07:28:05.800Z,10.37
2017-07-27T07:30:33.327Z,15.17
2017-07-27T07:33:01.176Z,12.27
2017-07-27T07:35:28.696Z,13.40
2017-07-27T07:37:56.214Z,11.40
2017-07-27T07:40:24.093Z,12.27
2017-07-27T07:42:51.609Z,14.40
2017-07-27T07:45:19.227Z,12.33
2017-07-27T07:47:47.095Z,11.83
2017-07-27T07:50:14.611Z,13.17
2017-07-27T07:52:42.134Z,18.03
2017-07-27T07:55:09.965Z,15.83
2017-07-27T07:57:37.475Z,17.37
2017-07-27T08:00:05.003Z,14.07
2017-07-27T08:02:32.856Z,13.83
2017-07-27T08:05:00.386Z,16.53
2017-07-27T08:07:28.704Z,13.80
2017-07-27T08:10:17.363Z,13.03
2017-07-27T08:12:44.888Z,16.93
2017-07-27T08:15:12.411Z,16.33
2017-07-27T08:17:40.210Z,14.80
2017-07-27T08:20:08.483Z,11.40
2017-07-27T08:22:36.767Z,9.73
2017-07-27T08:25:04.675Z,11.00
2017-07-27T08:27:32.211Z,12.40
2017-07-27T08:29:59.741Z,11.40
2017-07-27T08:32:28.309Z,10.37
2017-07-27T08:34:55.809Z,11.40
2017-07-27T08:37:23.357Z,11.07
2017-07-27T08:39:51.152Z,10.93
2017-07-27T08:42:18.669Z,12.67
2017-07-27T08:44:46.941Z,9.73
2017-07-27T08:47:15.564Z,9.67
2017-07-27T08:49:43.088Z,11.53
2017-07-27T08:52:11.404Z,10.90
2017-07-27T08:54:39.239Z,10.93
2017-07-27T08:57:06.767Z,11.30
2017-07-27T08:59:34.296Z,11.07
2017-07-27T09:02:02.134Z,10.23
2017-07-27T09:04:29.650Z,10.43
2017-07-27T09:06:57.171Z,10.30
2017-07-27T09:09:25.047Z,9.80
2017-07-27T09:11:52.554Z,13.63
2017-07-27T09:14:20.100Z,10.73
2017-07-27T09:16:48.028Z,9.57
2017-07-27T09:19:15.534Z,9.27
2017-07-27T09:21:43.051Z,9.97
2017-07-27T09:24:10.907Z,9.00
2017-07-27T09:26:38.434Z,8.93
2017-07-27T09:29:06.710Z,9.70
2017-07-27T09:31:35.301Z,9.07
2017-07-27T09:34:03.569Z,9.83
2017-07-27T09:36:31.846Z,8.83
2017-07-27T09:39:00.413Z,9.53
2017-07-27T09:41:27.931Z,7.70
2017-07-27T09:43:55.444Z,8.20
2017-07-27T09:46:23.249Z,8.20
2017-07-27T09:48:50.766Z,9.23
2017-07-27T09:51:18.274Z,13.70
2017-07-27T09:53:46.082Z,8.70
2017-07-27T09:56:14.397Z,8.10
2017-07-27T09:58:41.921Z,7.90
2017-07-27T10:01:09.746Z,8.83
2017-07-27T10:03:37.339Z,8.30
2017-07-27T10:06:04.847Z,8.43
2017-07-27T10:08:32.719Z,8.17
2017-07-27T10:11:00.255Z,7.93
2017-07-27T10:13:28.544Z,10.17
2017-07-27T10:15:56.429Z,9.43
2017-07-27T10:18:23.936Z,8.97
2017-07-27T10:20:51.462Z,9.83
2017-07-27T10:23:19.265Z,8.97
2017-07-27T10:25:46.767Z,9.87
2017-07-27T10:28:14.277Z,9.63
2017-07-27T10:30:42.112Z,10.03
2017-07-27T10:33:09.655Z,10.00
2017-07-27T10:35:37.167Z,9.93
2017-07-27T10:38:04.982Z,10.27
2017-07-27T10:40:32.485Z,9.73
2017-07-27T10:43:00.012Z,9.13
2017-07-27T10:45:27.869Z,9.77
2017-07-27T10:47:55.420Z,9.50
2017-07-27T10:50:22.936Z,9.70
2017-07-27T10:52:50.761Z,10.73
2017-07-27T10:55:18.279Z,11.73
2017-07-27T10:57:46.563Z,9.13
2017-07-27T11:00:15.118Z,9.30
2017-07-27T11:02:42.705Z,12.63
2017-07-27T11:05:10.984Z,10.60
2017-07-27T11:07:39.598Z,9.40
2017-07-27T11:10:07.128Z,10.30
2017-07-27T11:12:34.638Z,9.77
2017-07-27T11:15:02.446Z,10.40
2017-07-27T11:17:30.749Z,10.70
2017-07-27T11:19:58.337Z,9.93
2017-07-27T11:22:26.183Z,9.53
2017-07-27T11:24:53.708Z,10.00
2017-07-27T11:27:21.981Z,11.83
2017-07-27T11:29:50.295Z,10.20
2017-07-27T11:32:17.810Z,11.07
2017-07-27T11:34:45.610Z,9.63
2017-07-27T11:37:13.119Z,10.47
2017-07-27T11:39:40.635Z,10.63
2017-07-27T11:42:08.167Z,11.60
2017-07-27T11:44:36.469Z,9.63
2017-07-27T11:47:04.363Z,13.30
2017-07-27T11:49:31.891Z,12.23
2017-07-27T11:51:59.421Z,12.87
2017-07-27T11:54:26.949Z,12.37
2017-07-27T11:56:54.475Z,12.50
2017-07-27T11:59:22.293Z,12.53
2017-07-27T12:01:49.838Z,11.97
2017-07-27T12:04:17.399Z,12.37
2017-07-27T12:06:44.947Z,11.60
2017-07-27T12:09:12.471Z,12.73
2017-07-27T12:11:40.306Z,12.67
2017-07-27T12:14:07.832Z,10.40
2017-07-27T12:16:35.364Z,11.63
2017-07-27T12:19:02.928Z,13.07
2017-07-27T12:21:30.459Z,13.33
2017-07-27T12:23:59.075Z,17.30
2017-07-27T12:26:26.596Z,14.87
2017-07-27T12:28:54.882Z,16.17
2017-07-27T12:31:23.198Z,11.40
2017-07-27T12:33:50.734Z,12.80
2017-07-27T12:36:18.636Z,15.60
2017-07-27T12:38:46.164Z,11.20
2017-07-27T12:41:13.685Z,11.27
2017-07-27T12:43:41.202Z,10.23
2017-07-27T12:46:08.716Z,10.73
2017-07-27T12:48:37.347Z,10.73
2017-07-27T12:51:04.875Z,12.27
2017-07-27T12:53:33.180Z,14.40
2017-07-27T12:56:01.033Z,11.87
2017-07-27T12:58:28.546Z,8.43
2017-07-27T13:00:56.062Z,8.50
2017-07-27T13:03:23.875Z,8.23
2017-07-27T13:05:51.386Z,8.43
2017-07-27T13:08:18.885Z,8.50
2017-07-27T13:10:46.705Z,11.27
2017-07-27T13:13:14.220Z,10.70
2017-07-27T13:15:41.748Z,12.80
2017-07-27T13:18:09.546Z,13.30
2017-07-27T13:20:37.081Z,14.60
2017-07-27T13:23:04.620Z,16.13
2017-07-27T13:25:32.485Z,16.03
2017-07-27T13:28:00.011Z,16.70
2017-07-27T13:30:28.298Z,15.50
2017-07-27T13:32:56.114Z,14.70
2017-07-27T13:35:23.898Z,13.20
2017-07-27T13:37:51.415Z,15.37
2017-07-27T13:40:19.259Z,16.73
2017-07-27T13:42:46.789Z,14.67
2017-07-27T13:45:15.121Z,14.23
2017-07-27T13:47:42.988Z,15.30
2017-07-27T13:50:10.538Z,12.37
2017-07-27T13:52:38.065Z,13.27
2017-07-27T13:55:06.688Z,11.43
2017-07-27T13:57:34.215Z,12.37
2017-07-27T14:00:01.743Z,11.40
2017-07-27T14:02:29.793Z,12.03
2017-07-27T14:04:57.317Z,11.10
2017-07-27T14:07:24.856Z,11.90
2017-07-27T14:09:53.491Z,10.53
2017-07-27T14:12:21.016Z,11.90
2017-07-27T14:14:48.549Z,10.53
2017-07-27T14:17:16.390Z,11.00
2017-07-27T14:19:43.906Z,12.47
2017-07-27T14:22:11.436Z,11.87
2017-07-27T14:24:39.378Z,12.67
2017-07-27T14:27:06.929Z,11.17
2017-07-27T14:29:34.444Z,10.60
2017-07-27T14:32:03.054Z,9.03
2017-07-27T14:34:30.581Z,9.80
2017-07-27T14:36:59.560Z,9.37
2017-07-27T14:39:27.339Z,8.03
2017-07-27T14:41:55.641Z,8.07
2017-07-27T14:44:23.159Z,10.40
2017-07-27T14:46:50.978Z,7.40
2017-07-27T14:49:18.502Z,9.80
2017-07-27T14:51:46.779Z,7.87
2017-07-27T14:54:15.389Z,7.10
2017-07-27T14:56:42.897Z,8.03
2017-07-27T14:59:10.408Z,8.63
2017-07-27T15:01:38.295Z,9.07
2017-07-27T15:04:05.829Z,8.80
2017-07-27T15:06:33.351Z,8.70
2017-07-27T15:09:01.173Z,8.90
2017-07-27T15:11:28.685Z,7.97
2017-07-27T15:13:57.300Z,11.93
2017-07-27T15:16:25.109Z,7.63
2017-07-27T15:18:52.619Z,8.30
2017-07-27T15:21:20.127Z,7.50
2017-07-27T15:23:47.975Z,8.10
2017-07-27T15:26:15.490Z,10.30
2017-07-27T15:28:43.771Z,8.30
2017-07-27T15:31:11.681Z,9.83
2017-07-27T15:33:39.202Z,7.87
2017-07-27T15:36:06.739Z,8.80
2017-07-27T15:38:35.377Z,8.17
2017-07-27T15:41:02.890Z,9.10
2017-07-27T15:43:30.428Z,8.57
2017-07-27T15:45:58.295Z,8.90
2017-07-27T15:48:25.821Z,7.50
2017-07-27T15:50:53.346Z,13.80
2017-07-27T15:53:21.244Z,9.80
2017-07-27T15:55:48.749Z,7.90
2017-07-27T15:58:16.272Z,7.10
2017-07-27T16:00:44.135Z,8.33
2017-07-27T16:03:11.654Z,9.50
2017-07-27T16:05:39.936Z,8.00
2017-07-27T16:08:08.534Z,8.00
2017-07-27T16:10:36.046Z,8.80
2017-07-27T16:13:03.583Z,7.90
2017-07-27T16:15:31.446Z,7.10
2017-07-27T16:17:58.971Z,7.53
2017-07-27T16:20:26.552Z,6.90
2017-07-27T16:22:54.405Z,6.93
2017-07-27T16:25:21.928Z,7.43
2017-07-27T16:27:49.460Z,8.60
2017-07-27T16:30:17.411Z,7.67
2017-07-27T16:32:44.949Z,8.10
2017-07-27T16:35:12.463Z,9.07
2017-07-27T16:37:40.251Z,9.00
2017-07-27T16:40:08.549Z,8.23
2017-07-27T16:42:36.084Z,8.43
2017-07-27T16:45:04.650Z,10.20
2017-07-27T16:47:32.172Z,8.10
2017-07-27T16:49:59.701Z,13.13
2017-07-27T16:52:28.328Z,9.80
2017-07-27T16:54:55.884Z,10.50
2017-07-27T16:57:23.402Z,9.70
2017-07-27T16:59:52.015Z,10.47
2017-07-27T17:02:19.547Z,10.00
2017-07-27T17:04:47.830Z,10.70
2017-07-27T17:07:16.425Z,8.50
2017-07-27T17:09:43.953Z,12.33
2017-07-27T17:12:11.775Z,13.83
2017-07-27T17:14:39.624Z,11.53
2017-07-27T17:17:08.477Z,11.00
2017-07-27T17:19:35.991Z,9.93
2017-07-27T17:22:03.864Z,9.37
2017-07-27T17:24:31.379Z,13.47
2017-07-27T17:26:59.957Z,12.73
2017-07-27T17:29:28.582Z,9.67
2017-07-27T17:31:56.099Z,10.33
2017-07-27T17:34:24.379Z,9.63
2017-07-27T17:36:52.998Z,9.20
2017-07-27T17:39:20.509Z,10.33
2017-07-27T17:41:48.026Z,9.43
2017-07-27T17:44:15.827Z,7.97
2017-07-27T17:46:43.354Z,11.37
2017-07-27T17:49:10.868Z,10.60
2017-07-27T17:51:39.488Z,10.97
2017-07-27T17:54:07.868Z,11.77
2017-07-27T17:56:35.400Z,11.40
2017-07-27T17:59:03.203Z,10.27
2017-07-27T18:01:31.535Z,10.30
2017-07-27T18:03:59.827Z,10.70
2017-07-27T18:06:27.719Z,8.90
2017-07-27T18:08:55.220Z,8.97
2017-07-27T18:11:23.516Z,9.80
2017-07-27T18:13:52.084Z,8.63
2017-07-27T18:16:19.617Z,8.40
2017-07-27T18:18:47.137Z,8.43
2017-07-27T18:21:15.838Z,10.00
2017-07-27T18:23:43.384Z,13.90
2017-07-27T18:26:10.902Z,10.23
2017-07-27T18:28:38.712Z,9.50
2017-07-27T18:31:06.222Z,11.50
2017-07-27T18:33:33.745Z,9.90
2017-07-27T18:36:01.621Z,10.33
2017-07-27T18:38:29.161Z,9.87
2017-07-27T18:40:56.665Z,10.77
2017-07-27T18:43:24.487Z,9.80
2017-07-27T18:45:52.019Z,11.00
2017-07-27T18:48:20.322Z,13.00
2017-07-27T18:50:48.209Z,11.33
2017-07-27T18:53:15.755Z,12.07
2017-07-27T18:55:43.354Z,11.67
2017-07-27T18:58:11.158Z,15.93
2017-07-27T19:00:38.680Z,8.20
2017-07-27T19:03:06.211Z,11.03
2017-07-27T19:05:34.042Z,10.40
2017-07-27T19:08:02.321Z,8.50
2017-07-27T19:10:30.608Z,11.40
2017-07-27T19:12:58.489Z,16.93
2017-07-27T19:15:26.006Z,9.03
2017-07-27T19:17:53.522Z,9.23
2017-07-27T19:20:21.391Z,9.83
2017-07-27T19:22:48.918Z,9.53
2017-07-27T19:25:16.462Z,13.27
2017-07-27T19:27:45.107Z,9.37
2017-07-27T19:30:12.611Z,8.33
2017-07-27T19:32:41.301Z,11.60
2017-07-27T19:35:09.161Z,12.47
2017-07-27T19:37:37.434Z,6.73
2017-07-27T19:40:05.752Z,5.07
2017-07-27T19:42:33.591Z,4.87
2017-07-27T19:45:01.107Z,4.90
2017-07-27T19:47:28.621Z,4.00
2017-07-27T19:49:56.556Z,4.47
2017-07-27T19:52:24.086Z,3.93
2017-07-27T19:54:51.616Z,7.73
2017-07-27T19:57:19.491Z,4.90
2017-07-27T19:59:47.015Z,4.60
2017-07-27T20:02:15.303Z,3.57
2017-07-27T20:04:43.208Z,3.33
2017-07-27T20:07:10.727Z,5.40
2017-07-27T20:09:38.253Z,3.70
2017-07-27T20:12:06.078Z,3.13
2017-07-27T20:14:33.577Z,4.87
2017-07-27T20:17:01.094Z,6.47
2017-07-27T20:19:28.912Z,5.67
2017-07-27T20:21:56.444Z,3.90
2017-07-27T20:24:23.962Z,3.93
2017-07-27T20:26:51.762Z,4.03
2017-07-27T20:29:19.303Z,3.40
2017-07-27T20:31:46.824Z,3.20
2017-07-27T20:34:14.721Z,3.37
2017-07-27T20:36:42.227Z,4.00
2017-07-27T20:39:09.729Z,2.70
2017-07-27T20:41:37.618Z,3.63
2017-07-27T20:44:05.132Z,3.70
2017-07-27T20:46:32.648Z,3.60
2017-07-27T20:49:00.507Z,3.13
2017-07-27T20:51:28.029Z,4.33
2017-07-27T20:53:56.307Z,5.77
2017-07-27T20:56:24.898Z,4.47
2017-07-27T20:58:52.417Z,6.30
2017-07-27T21:01:19.918Z,3.90
2017-07-27T21:03:47.720Z,4.13
2017-07-27T21:06:15.253Z,6.23
2017-07-27T21:08:42.801Z,4.77
2017-07-27T21:11:10.691Z,6.60
2017-07-27T21:13:38.215Z,4.10
2017-07-27T21:16:05.726Z,4.40
2017-07-27T21:18:33.579Z,4.30
2017-07-27T21:21:01.088Z,6.07
2017-07-27T21:23:28.615Z,4.90
2017-07-27T21:25:56.423Z,5.23
2017-07-27T21:28:23.930Z,5.20
2017-07-27T21:30:51.439Z,4.93
2017-07-27T21:33:19.244Z,6.33
2017-07-27T21:35:46.764Z,7.67
2017-07-27T21:38:14.283Z,7.60
2017-07-27T21:40:42.122Z,5.20
2017-07-27T21:43:09.631Z,5.03
2017-07-27T21:45:37.139Z,5.90
2017-07-27T21:48:05.020Z,6.20
2017-07-27T21:50:32.517Z,4.47
2017-07-27T21:53:00.035Z,5.33
2017-07-27T21:55:27.823Z,6.07
2017-07-27T21:57:55.330Z,5.57
2017-07-27T22:00:23.598Z,5.77
2017-07-27T22:02:51.507Z,5.40
2017-07-27T22:05:19.027Z,5.33
2017-07-27T22:07:46.557Z,7.13
2017-07-27T22:10:14.385Z,6.63
2017-07-27T22:12:41.909Z,5.47
2017-07-27T22:15:09.436Z,5.23
2017-07-27T22:17:37.283Z,5.73
2017-07-27T22:20:04.800Z,5.37
2017-07-27T22:22:32.322Z,5.17
2017-07-27T22:25:00.178Z,4.83
2017-07-27T22:27:27.687Z,5.57
2017-07-27T22:29:55.983Z,5.17
2017-07-27T22:32:23.828Z,4.70
2017-07-27T22:34:52.109Z,4.83
2017-07-27T22:37:19.628Z,4.50
2017-07-27T22:39:47.463Z,6.73
2017-07-27T22:42:14.967Z,5.00
2017-07-27T22:44:42.489Z,5.33
2017-07-27T22:47:10.296Z,5.13
2017-07-27T22:49:37.816Z,5.37
2017-07-27T22:52:05.334Z,5.03
2017-07-27T22:54:33.205Z,5.80
2017-07-27T22:57:01.516Z,5.40
2017-07-27T22:59:29.042Z,8.87
2017-07-27T23:01:57.655Z,7.70
2017-07-27T23:04:25.185Z,9.13
2017-07-27T23:06:53.476Z,9.00
2017-07-27T23:09:21.381Z,6.03
2017-07-27T23:11:48.883Z,11.80
2017-07-27T23:14:16.398Z,7.90
2017-07-27T23:16:44.244Z,8.20
2017-07-27T23:19:11.756Z,5.13
2017-07-27T23:21:39.248Z,9.80
2017-07-27T23:24:07.132Z,5.70
2017-07-27T23:26:34.638Z,5.10
2017-07-27T23:29:02.143Z,5.30
2017-07-27T23:31:30.023Z,7.03
2017-07-27T23:33:57.531Z,5.87
2017-07-27T23:36:25.820Z,8.80
2017-07-27T23:38:53.639Z,5.27
2017-07-27T23:41:21.148Z,6.37
2017-07-27T23:43:48.667Z,4.57
2017-07-27T23:46:16.487Z,4.63
2017-07-27T23:48:44.004Z,4.83
2017-07-27T23:51:11.528Z,5.70
2017-07-27T23:53:39.370Z,6.33
2017-07-27T23:56:06.877Z,4.90
2017-07-27T23:58:34.393Z,5.90
